createdAt,value
2023-01-17T00:02:20.895Z,93792.38
2023-01-17T00:05:07.869Z,93790.50
2023-01-17T00:07:54.479Z,93796.09
2023-01-17T00:10:25.422Z,93787.73
2023-01-17T00:12:58.427Z,93783.67
2023-01-17T00:15:28.698Z,93790.17
2023-01-17T00:17:58.551Z,93774.02
2023-01-17T00:20:48.017Z,93761.02
2023-01-17T00:23:41.007Z,93754.56
2023-01-17T00:26:18.727Z,93752.45
2023-01-17T00:28:48.903Z,93741.84
2023-01-17T00:31:17.190Z,93746.18
2023-01-17T00:33:45.553Z,93744.86
2023-01-17T00:36:14.006Z,93744.11
2023-01-17T00:38:42.210Z,93745.98
2023-01-17T00:41:13.157Z,93755.11
2023-01-17T00:43:59.650Z,93752.08
2023-01-17T00:46:46.279Z,93754.17
2023-01-17T00:49:32.870Z,93764.23
2023-01-17T00:52:19.834Z,93764.69
2023-01-17T00:55:06.429Z,93759.52
2023-01-17T00:57:53.117Z,93753.83
2023-01-17T01:00:39.887Z,93757.93
2023-01-17T01:03:30.418Z,93763.30
2023-01-17T01:06:17.102Z,93771.45
2023-01-17T01:09:03.724Z,93765.90
2023-01-17T01:11:50.511Z,93762.48
2023-01-17T01:14:37.082Z,93753.42
2023-01-17T01:17:24.018Z,93784.07
2023-01-17T01:20:10.599Z,93786.58
2023-01-17T01:22:57.588Z,93769.05
2023-01-17T01:25:44.194Z,93760.85
2023-01-17T01:28:32.857Z,93739.34
2023-01-17T01:31:23.489Z,93736.55
2023-01-17T01:33:52.866Z,93733.52
2023-01-17T01:36:21.118Z,93734.26
2023-01-17T01:38:50.386Z,93738.86
2023-01-17T01:41:18.693Z,93741.56
2023-01-17T01:43:49.027Z,93748.73
2023-01-17T01:46:23.191Z,93749.29
2023-01-17T01:49:15.309Z,93742.79
2023-01-17T01:51:51.127Z,93743.40
2023-01-17T01:54:45.022Z,93746.88
2023-01-17T01:57:17.113Z,93739.10
2023-01-17T01:59:54.425Z,93731.09
2023-01-17T02:02:22.649Z,93732.81
2023-01-17T02:04:51.649Z,93721.19
2023-01-17T02:07:33.335Z,93713.52
2023-01-17T02:10:03.122Z,93711.73
2023-01-17T02:12:31.364Z,93711.91
2023-01-17T02:15:00.179Z,93707.91
2023-01-17T02:18:06.433Z,93710.00
2023-01-17T02:21:19.127Z,93700.77
2023-01-17T02:24:17.991Z,93698.66
2023-01-17T02:27:00.765Z,93699.52
2023-01-17T02:29:53.444Z,93703.95
2023-01-17T02:32:27.264Z,93701.80
2023-01-17T02:35:22.031Z,93699.22
2023-01-17T02:38:03.995Z,93694.23
2023-01-17T02:40:41.980Z,93698.42
2023-01-17T02:43:14.615Z,93694.25
2023-01-17T02:45:43.268Z,93693.91
2023-01-17T02:48:14.991Z,93691.15
2023-01-17T02:50:46.129Z,93680.89
2023-01-17T02:53:31.177Z,93687.77
2023-01-17T02:56:36.414Z,93679.04
2023-01-17T02:59:33.869Z,93671.47
2023-01-17T03:02:12.905Z,93667.21
2023-01-17T03:04:49.846Z,93672.77
2023-01-17T03:07:24.151Z,93667.23
2023-01-17T03:10:01.579Z,93669.83
2023-01-17T03:12:31.471Z,93659.77
2023-01-17T03:14:59.653Z,93650.55
2023-01-17T03:17:32.715Z,93643.60
2023-01-17T03:20:01.140Z,93631.98
2023-01-17T03:22:29.421Z,93629.40
2023-01-17T03:24:57.661Z,93631.67
2023-01-17T03:27:25.684Z,93635.09
2023-01-17T03:29:53.902Z,93643.49
2023-01-17T03:32:22.036Z,93645.34
2023-01-17T03:34:50.277Z,93649.14
2023-01-17T03:37:18.572Z,93654.42
2023-01-17T03:39:46.698Z,93655.73
2023-01-17T03:42:14.867Z,93655.66
2023-01-17T03:44:43.056Z,93663.20
2023-01-17T03:47:12.345Z,93660.86
2023-01-17T03:49:40.895Z,93657.64
2023-01-17T03:52:09.257Z,93643.34
2023-01-17T03:54:37.432Z,93637.66
2023-01-17T03:57:05.700Z,93635.23
2023-01-17T03:59:34.184Z,93632.94
2023-01-17T04:02:03.119Z,93626.28
2023-01-17T04:04:31.217Z,93621.45
2023-01-17T04:06:59.364Z,93613.92
2023-01-17T04:09:27.527Z,93616.02
2023-01-17T04:11:55.730Z,93625.70
2023-01-17T04:14:23.776Z,93621.96
2023-01-17T04:16:51.861Z,93622.52
2023-01-17T04:19:20.905Z,93624.52
2023-01-17T04:21:49.307Z,93632.70
2023-01-17T04:24:18.136Z,93629.48
2023-01-17T04:26:46.348Z,93631.48
2023-01-17T04:29:14.686Z,93632.23
2023-01-17T04:31:43.096Z,93631.01
2023-01-17T04:34:11.537Z,93628.24
2023-01-17T04:36:39.740Z,93631.38
2023-01-17T04:39:07.748Z,93629.73
2023-01-17T04:41:36.136Z,93621.67
2023-01-17T04:44:04.623Z,93629.04
2023-01-17T04:46:32.779Z,93633.06
2023-01-17T04:49:01.087Z,93621.11
2023-01-17T04:51:29.330Z,93614.20
2023-01-17T04:53:57.465Z,93611.96
2023-01-17T04:56:25.521Z,93619.45
2023-01-17T04:58:53.724Z,93614.59
2023-01-17T05:01:22.003Z,93609.71
2023-01-17T05:03:50.648Z,93611.80
2023-01-17T05:06:18.857Z,93612.79
2023-01-17T05:08:47.026Z,93602.57
2023-01-17T05:11:15.148Z,93609.04
2023-01-17T05:13:43.235Z,93618.20
2023-01-17T05:16:11.298Z,93608.52
2023-01-17T05:18:39.510Z,93621.33
2023-01-17T05:21:07.538Z,93612.70
2023-01-17T05:23:35.730Z,93617.10
2023-01-17T05:26:03.876Z,93619.04
2023-01-17T05:28:33.087Z,93620.24
2023-01-17T05:31:01.162Z,93604.95
2023-01-17T05:33:30.039Z,93606.55
2023-01-17T05:35:58.598Z,93593.12
2023-01-17T05:38:26.736Z,93587.60
2023-01-17T05:40:54.971Z,93584.58
2023-01-17T05:43:23.210Z,93573.84
2023-01-17T05:45:51.354Z,93579.42
2023-01-17T05:48:19.681Z,93586.70
2023-01-17T05:50:47.856Z,93589.70
2023-01-17T05:53:16.934Z,93584.77
2023-01-17T05:55:45.425Z,93589.42
2023-01-17T05:58:20.477Z,93595.45
2023-01-17T06:00:49.762Z,93595.84
2023-01-17T06:03:18.310Z,93599.81
2023-01-17T06:05:47.148Z,93611.69
2023-01-17T06:08:15.970Z,93598.44
2023-01-17T06:10:44.361Z,93604.47
2023-01-17T06:13:15.394Z,93620.36
2023-01-17T06:15:43.781Z,93621.36
2023-01-17T06:18:15.393Z,93632.41
2023-01-17T06:20:44.210Z,93639.36
2023-01-17T06:23:14.162Z,93644.55
2023-01-17T06:25:45.030Z,93654.56
2023-01-17T06:28:15.789Z,93657.94
2023-01-17T06:30:44.789Z,93666.30
2023-01-17T06:33:14.049Z,93670.35
2023-01-17T06:35:50.412Z,93675.49
2023-01-17T06:38:19.381Z,93670.24
2023-01-17T06:40:49.455Z,93684.39
2023-01-17T06:43:18.096Z,93688.67
2023-01-17T06:45:46.393Z,93670.16
2023-01-17T06:48:15.680Z,93656.39
2023-01-17T06:50:44.103Z,93646.02
2023-01-17T06:53:12.197Z,93650.05
2023-01-17T06:55:40.477Z,93651.00
2023-01-17T06:58:09.318Z,93650.39
2023-01-17T07:00:41.103Z,93652.45
2023-01-17T07:03:20.639Z,93651.92
2023-01-17T07:05:50.551Z,93648.70
2023-01-17T07:08:21.605Z,93655.69
2023-01-17T07:10:49.764Z,93669.92
2023-01-17T07:13:18.796Z,93686.12
2023-01-17T07:15:48.608Z,93681.50
2023-01-17T07:18:20.738Z,93684.58
2023-01-17T07:20:50.248Z,93686.65
2023-01-17T07:23:19.972Z,93701.71
2023-01-17T07:25:56.890Z,93691.10
2023-01-17T07:28:26.302Z,93691.48
2023-01-17T07:30:54.701Z,93671.53
2023-01-17T07:33:24.324Z,93662.11
2023-01-17T07:35:53.285Z,93663.34
2023-01-17T07:38:21.525Z,93671.19
2023-01-17T07:40:49.706Z,93671.98
2023-01-17T07:43:17.931Z,93682.23
2023-01-17T07:45:51.851Z,93669.46
2023-01-17T07:48:22.621Z,93672.20
2023-01-17T07:50:54.987Z,93679.83
2023-01-17T07:53:25.241Z,93667.02
2023-01-17T07:55:53.831Z,93664.05
2023-01-17T07:58:23.163Z,93665.98
2023-01-17T08:00:52.519Z,93669.97
2023-01-17T08:03:21.753Z,93671.70
2023-01-17T08:05:55.529Z,93669.80
2023-01-17T08:08:23.964Z,93678.54
2023-01-17T08:10:52.202Z,93674.43
2023-01-17T08:13:22.035Z,93674.65
2023-01-17T08:15:51.082Z,93677.69
2023-01-17T08:18:19.272Z,93676.35
2023-01-17T08:20:47.531Z,93676.56
2023-01-17T08:23:15.882Z,93686.41
2023-01-17T08:25:44.748Z,93674.42
2023-01-17T08:28:13.095Z,93670.66
2023-01-17T08:30:41.253Z,93667.98
2023-01-17T08:33:09.562Z,93672.79
2023-01-17T08:35:37.641Z,93681.39
2023-01-17T08:38:06.141Z,93677.35
2023-01-17T08:40:34.323Z,93684.67
2023-01-17T08:43:03.984Z,93699.32
2023-01-17T08:45:32.399Z,93686.04
2023-01-17T08:48:00.554Z,93691.64
2023-01-17T08:50:28.761Z,93697.41
2023-01-17T08:53:01.276Z,93700.34
2023-01-17T08:55:29.881Z,93702.02
2023-01-17T08:57:58.057Z,93692.16
2023-01-17T09:00:28.635Z,93696.94
2023-01-17T09:02:56.963Z,93693.23
2023-01-17T09:05:25.219Z,93692.63
2023-01-17T09:07:54.644Z,93706.78
2023-01-17T09:10:23.784Z,93700.91
2023-01-17T09:12:52.227Z,93702.30
2023-01-17T09:15:20.400Z,93700.81
2023-01-17T09:17:48.510Z,93701.80
2023-01-17T09:20:17.094Z,93706.08
2023-01-17T09:22:46.259Z,93710.52
2023-01-17T09:25:15.524Z,93703.03
2023-01-17T09:27:47.514Z,93700.58
2023-01-17T09:30:16.207Z,93707.02
2023-01-17T09:32:52.362Z,93720.78
2023-01-17T09:35:20.855Z,93734.02
2023-01-17T09:37:52.620Z,93731.02
2023-01-17T09:40:24.745Z,93739.83
2023-01-17T09:43:02.753Z,93735.16
2023-01-17T09:45:34.030Z,93736.60
2023-01-17T09:48:08.972Z,93737.68
2023-01-17T09:51:08.653Z,93728.28
2023-01-17T09:53:41.719Z,93735.96
2023-01-17T09:56:16.071Z,93730.84
2023-01-17T09:59:35.309Z,93733.45
2023-01-17T10:02:28.784Z,93730.29
2023-01-17T10:05:06.521Z,93731.13
2023-01-17T10:07:50.927Z,93724.67
2023-01-17T10:10:40.932Z,93716.39
2023-01-17T10:13:21.507Z,93708.60
2023-01-17T10:16:01.601Z,93707.91
2023-01-17T10:18:30.588Z,93709.40
2023-01-17T10:21:09.698Z,93707.58
2023-01-17T10:23:42.102Z,93704.17
2023-01-17T10:26:19.511Z,93704.98
2023-01-17T10:28:51.609Z,93708.55
2023-01-17T10:31:25.350Z,93711.17
2023-01-17T10:34:18.683Z,93705.60
2023-01-17T10:37:11.549Z,93706.00
2023-01-17T10:39:39.819Z,93699.26
2023-01-17T10:42:35.330Z,93708.09
2023-01-17T10:45:16.895Z,93709.70
2023-01-17T10:47:51.360Z,93710.41
2023-01-17T10:50:23.688Z,93704.82
2023-01-17T10:52:59.077Z,93694.30
2023-01-17T10:55:48.546Z,93697.90
2023-01-17T10:58:16.613Z,93694.21
2023-01-17T11:01:03.067Z,93684.69
2023-01-17T11:03:32.343Z,93685.88
2023-01-17T11:06:33.868Z,93682.12
2023-01-17T11:09:03.578Z,93685.91
2023-01-17T11:11:34.438Z,93698.63
2023-01-17T11:14:25.805Z,93695.48
2023-01-17T11:17:02.640Z,93691.30
2023-01-17T11:19:36.258Z,93696.14
2023-01-17T11:22:09.568Z,93696.59
2023-01-17T11:24:53.921Z,93705.83
2023-01-17T11:27:42.332Z,93700.43
2023-01-17T11:30:17.687Z,93696.59
2023-01-17T11:33:06.097Z,93696.88
2023-01-17T11:35:38.928Z,93691.26
2023-01-17T11:38:14.954Z,93680.09
2023-01-17T11:40:45.021Z,93682.73
2023-01-17T11:43:18.532Z,93687.32
2023-01-17T11:46:01.536Z,93674.36
2023-01-17T11:48:37.883Z,93675.35
2023-01-17T11:51:24.216Z,93673.39
2023-01-17T11:53:54.674Z,93672.90
2023-01-17T11:56:37.708Z,93672.80
2023-01-17T11:59:37.579Z,93676.17
2023-01-17T12:02:33.738Z,93670.63
2023-01-17T12:05:02.129Z,93670.61
2023-01-17T12:07:43.185Z,93680.16
2023-01-17T12:10:11.515Z,93682.98
2023-01-17T12:13:02.620Z,93689.92
2023-01-17T12:15:57.838Z,93673.20
2023-01-17T12:18:34.937Z,93673.96
2023-01-17T12:21:17.761Z,93672.90
2023-01-17T12:24:21.797Z,93675.66
2023-01-17T12:26:54.677Z,93678.68
2023-01-17T12:29:43.712Z,93677.87
2023-01-17T12:32:33.231Z,93683.05
2023-01-17T12:35:13.006Z,93679.29
2023-01-17T12:37:44.627Z,93670.42
2023-01-17T12:40:35.561Z,93667.30
2023-01-17T12:43:08.951Z,93655.12
2023-01-17T12:45:45.843Z,93657.76
2023-01-17T12:48:20.519Z,93659.89
2023-01-17T12:51:05.940Z,93665.75
2023-01-17T12:54:02.150Z,93667.99
2023-01-17T12:56:59.421Z,93681.45
2023-01-17T12:59:46.766Z,93682.64
2023-01-17T13:02:26.300Z,93685.80
2023-01-17T13:05:03.808Z,93686.77
2023-01-17T13:07:50.825Z,93690.69
2023-01-17T13:10:22.621Z,93701.48
2023-01-17T13:12:51.918Z,93697.98
2023-01-17T13:15:25.958Z,93701.17
2023-01-17T13:18:03.029Z,93697.88
2023-01-17T13:21:09.394Z,93698.96
2023-01-17T13:24:31.568Z,93696.88
2023-01-17T13:27:24.228Z,93694.98
2023-01-17T13:30:04.555Z,93691.07
2023-01-17T13:32:51.481Z,93697.40
2023-01-17T13:35:28.547Z,93696.93
2023-01-17T13:38:22.916Z,93700.65
2023-01-17T13:40:55.043Z,93704.59
2023-01-17T13:43:27.043Z,93708.02
2023-01-17T13:45:57.820Z,93704.15
2023-01-17T13:48:28.202Z,93706.65
2023-01-17T13:50:57.846Z,93710.85
2023-01-17T13:53:29.421Z,93717.72
2023-01-17T13:56:18.478Z,93713.23
2023-01-17T13:58:54.604Z,93716.11
2023-01-17T14:01:22.968Z,93727.45
2023-01-17T14:03:52.675Z,93733.76
2023-01-17T14:06:36.073Z,93737.48
2023-01-17T14:09:22.590Z,93746.50
2023-01-17T14:12:15.363Z,93756.61
2023-01-17T14:14:48.714Z,93755.56
2023-01-17T14:17:25.659Z,93755.77
2023-01-17T14:20:06.279Z,93751.66
2023-01-17T14:22:42.090Z,93745.73
2023-01-17T14:25:15.132Z,93735.26
2023-01-17T14:27:43.480Z,93734.41
2023-01-17T14:30:18.347Z,93729.80
2023-01-17T14:33:01.518Z,93730.48
2023-01-17T14:35:34.472Z,93726.61
2023-01-17T14:38:12.462Z,93728.86
2023-01-17T14:40:41.181Z,93734.42
2023-01-17T14:43:16.109Z,93740.37
2023-01-17T14:45:45.196Z,93742.10
2023-01-17T14:48:20.490Z,93748.00
2023-01-17T14:50:54.939Z,93757.96
2023-01-17T14:53:32.260Z,93759.20
2023-01-17T14:56:12.381Z,93766.16
2023-01-17T14:58:41.568Z,93766.26
2023-01-17T15:01:19.664Z,93767.17
2023-01-17T15:03:54.090Z,93762.58
2023-01-17T15:06:33.113Z,93758.73
2023-01-17T15:09:01.426Z,93763.13
2023-01-17T15:11:33.176Z,93759.88
2023-01-17T15:14:08.213Z,93760.12
2023-01-17T15:16:38.378Z,93753.91
2023-01-17T15:19:14.979Z,93750.14
2023-01-17T15:21:45.823Z,93759.88
2023-01-17T15:24:21.742Z,93763.11
2023-01-17T15:26:50.704Z,93764.81
2023-01-17T15:29:28.379Z,93768.73
2023-01-17T15:31:58.651Z,93772.88
2023-01-17T15:34:30.035Z,93768.30
2023-01-17T15:37:04.753Z,93767.38
2023-01-17T15:39:40.494Z,93766.54
2023-01-17T15:42:21.886Z,93756.98
2023-01-17T15:44:59.443Z,93763.25
2023-01-17T15:47:40.056Z,93758.80
2023-01-17T15:50:21.186Z,93764.80
2023-01-17T15:52:50.675Z,93772.64
2023-01-17T15:55:31.040Z,93772.17
2023-01-17T15:58:00.545Z,93758.83
2023-01-17T16:00:32.834Z,93763.40
2023-01-17T16:03:02.320Z,93782.08
2023-01-17T16:05:33.495Z,93783.35
2023-01-17T16:08:06.111Z,93772.48
2023-01-17T16:10:39.176Z,93756.96
2023-01-17T16:13:10.033Z,93752.77
2023-01-17T16:15:40.068Z,93747.95
2023-01-17T16:18:36.086Z,93749.67
2023-01-17T16:21:21.321Z,93754.42
2023-01-17T16:23:50.242Z,93750.10
2023-01-17T16:26:18.775Z,93743.04
2023-01-17T16:28:47.336Z,93740.71
2023-01-17T16:31:17.480Z,93739.73
2023-01-17T16:33:49.515Z,93740.36
2023-01-17T16:36:18.322Z,93734.50
2023-01-17T16:38:49.898Z,93722.67
2023-01-17T16:41:19.331Z,93721.14
2023-01-17T16:43:57.742Z,93720.88
2023-01-17T16:46:27.153Z,93721.10
2023-01-17T16:48:55.989Z,93723.13
2023-01-17T16:51:24.286Z,93718.52
2023-01-17T16:53:52.708Z,93715.91
2023-01-17T16:56:21.070Z,93712.54
2023-01-17T16:58:52.120Z,93703.08
2023-01-17T17:01:22.767Z,93709.23
2023-01-17T17:03:51.421Z,93709.09
2023-01-17T17:06:20.064Z,93707.98
2023-01-17T17:08:48.369Z,93706.31
2023-01-17T17:11:20.174Z,93706.95
2023-01-17T17:13:50.475Z,93709.36
2023-01-17T17:16:30.068Z,93706.61
2023-01-17T17:19:04.358Z,93704.17
2023-01-17T17:21:35.162Z,93702.05
2023-01-17T17:24:05.537Z,93701.94
2023-01-17T17:26:36.121Z,93705.36
2023-01-17T17:29:06.782Z,93698.80
2023-01-17T17:31:35.039Z,93684.61
2023-01-17T17:34:05.320Z,93679.11
2023-01-17T17:36:35.266Z,93675.70
2023-01-17T17:39:05.986Z,93662.52
2023-01-17T17:41:39.260Z,93657.00
2023-01-17T17:44:07.398Z,93654.21
2023-01-17T17:46:37.298Z,93645.48
2023-01-17T17:49:06.817Z,93640.36
2023-01-17T17:51:38.364Z,93633.93
2023-01-17T17:54:09.995Z,93621.69
2023-01-17T17:56:40.515Z,93617.40
2023-01-17T17:59:10.349Z,93611.48
2023-01-17T18:01:38.528Z,93603.65
2023-01-17T18:04:08.240Z,93606.03
2023-01-17T18:06:36.620Z,93607.64
2023-01-17T18:09:10.158Z,93612.86
2023-01-17T18:11:40.813Z,93612.63
2023-01-17T18:14:12.662Z,93602.02
2023-01-17T18:16:43.947Z,93597.63
2023-01-17T18:19:20.766Z,93581.70
2023-01-17T18:21:50.506Z,93564.64
2023-01-17T18:24:21.600Z,93563.84
2023-01-17T18:26:52.414Z,93559.52
2023-01-17T18:29:21.922Z,93558.68
2023-01-17T18:31:52.062Z,93555.25
2023-01-17T18:34:24.391Z,93554.27
2023-01-17T18:36:53.750Z,93541.98
2023-01-17T18:39:25.593Z,93541.58
2023-01-17T18:41:54.617Z,93538.85
2023-01-17T18:44:23.341Z,93538.69
2023-01-17T18:46:54.736Z,93526.52
2023-01-17T18:49:27.367Z,93515.59
2023-01-17T18:51:55.398Z,93513.87
2023-01-17T18:54:23.501Z,93509.39
2023-01-17T18:56:51.655Z,93496.19
2023-01-17T18:59:20.460Z,93486.90
2023-01-17T19:01:49.455Z,93474.38
2023-01-17T19:04:19.042Z,93470.62
2023-01-17T19:06:48.592Z,93467.48
2023-01-17T19:09:17.444Z,93464.94
2023-01-17T19:11:47.584Z,93463.83
2023-01-17T19:14:16.981Z,93459.73
2023-01-17T19:16:45.199Z,93451.59
2023-01-17T19:19:15.551Z,93443.59
2023-01-17T19:21:44.099Z,93428.37
2023-01-17T19:24:13.312Z,93430.31
2023-01-17T19:26:43.464Z,93425.24
2023-01-17T19:29:12.397Z,93411.00
2023-01-17T19:31:43.365Z,93409.69
2023-01-17T19:34:14.759Z,93402.36
2023-01-17T19:36:43.570Z,93401.59
2023-01-17T19:39:11.968Z,93394.80
2023-01-17T19:41:45.112Z,93383.14
2023-01-17T19:44:15.281Z,93383.82
2023-01-17T19:46:45.575Z,93371.20
2023-01-17T19:49:13.734Z,93365.66
2023-01-17T19:51:42.361Z,93361.34
2023-01-17T19:54:10.694Z,93356.59
2023-01-17T19:56:39.140Z,93352.92
2023-01-17T19:59:08.289Z,93350.02
2023-01-17T20:01:36.722Z,93348.05
2023-01-17T20:04:05.415Z,93351.25
2023-01-17T20:06:36.997Z,93351.15
2023-01-17T20:09:06.073Z,93348.92
2023-01-17T20:11:34.470Z,93345.56
2023-01-17T20:14:05.611Z,93346.33
2023-01-17T20:16:37.051Z,93337.55
2023-01-17T20:19:05.395Z,93330.10
2023-01-17T20:21:34.417Z,93330.96
2023-01-17T20:24:05.406Z,93322.64
2023-01-17T20:26:35.328Z,93320.64
2023-01-17T20:29:11.065Z,93315.40
2023-01-17T20:31:40.773Z,93313.17
2023-01-17T20:34:12.243Z,93308.84
2023-01-17T20:36:41.966Z,93318.44
2023-01-17T20:39:12.501Z,93325.70
2023-01-17T20:41:42.527Z,93331.84
2023-01-17T20:44:14.121Z,93327.02
2023-01-17T20:46:43.216Z,93332.15
2023-01-17T20:49:17.340Z,93327.14
2023-01-17T20:51:46.549Z,93325.05
2023-01-17T20:54:19.561Z,93325.79
2023-01-17T20:56:48.009Z,93324.35
2023-01-17T20:59:22.279Z,93318.95
2023-01-17T21:01:51.863Z,93315.09
2023-01-17T21:04:25.784Z,93312.75
2023-01-17T21:06:54.848Z,93311.64
2023-01-17T21:09:23.212Z,93315.21
2023-01-17T21:11:51.961Z,93315.60
2023-01-17T21:14:21.825Z,93324.02
2023-01-17T21:16:50.484Z,93309.83
2023-01-17T21:19:18.672Z,93302.45
2023-01-17T21:21:48.532Z,93300.04
2023-01-17T21:24:18.974Z,93290.44
2023-01-17T21:26:47.387Z,93283.60
2023-01-17T21:29:16.200Z,93281.95
2023-01-17T21:31:45.285Z,93271.25
2023-01-17T21:34:13.881Z,93259.24
2023-01-17T21:36:42.629Z,93257.30
2023-01-17T21:39:15.790Z,93249.13
2023-01-17T21:41:45.923Z,93232.63
2023-01-17T21:44:20.305Z,93236.79
2023-01-17T21:46:49.645Z,93220.59
2023-01-17T21:49:17.875Z,93212.88
2023-01-17T21:51:55.343Z,93216.95
2023-01-17T21:54:44.585Z,93208.63
2023-01-17T21:57:33.441Z,93217.40
2023-01-17T22:00:01.913Z,93208.05
2023-01-17T22:02:41.037Z,93214.83
2023-01-17T22:05:10.316Z,93205.89
2023-01-17T22:08:01.224Z,93196.70
2023-01-17T22:10:29.271Z,93203.83
2023-01-17T22:12:57.476Z,93209.64
2023-01-17T22:15:25.632Z,93210.59
2023-01-17T22:17:53.856Z,93208.31
2023-01-17T22:20:22.219Z,93202.01
2023-01-17T22:22:50.245Z,93195.98
2023-01-17T22:25:18.382Z,93200.55
2023-01-17T22:27:46.731Z,93196.07
2023-01-17T22:30:15.073Z,93195.81
2023-01-17T22:32:43.127Z,93194.99
2023-01-17T22:35:11.346Z,93209.68
2023-01-17T22:37:39.509Z,93206.33
2023-01-17T22:40:10.098Z,93205.95
2023-01-17T22:42:38.785Z,93208.17
2023-01-17T22:45:07.918Z,93207.05
2023-01-17T22:47:37.077Z,93213.52
2023-01-17T22:50:07.624Z,93214.50
2023-01-17T22:52:35.872Z,93216.60
2023-01-17T22:55:04.789Z,93212.00
2023-01-17T22:57:33.195Z,93212.91
2023-01-17T23:00:01.260Z,93205.81
2023-01-17T23:02:29.696Z,93207.02
2023-01-17T23:04:57.819Z,93202.06
2023-01-17T23:07:27.060Z,93202.63
2023-01-17T23:09:55.283Z,93208.33
2023-01-17T23:12:23.332Z,93198.66
2023-01-17T23:15:10.079Z,93201.80
2023-01-17T23:17:56.762Z,93218.00
2023-01-17T23:20:24.908Z,93215.21
2023-01-17T23:22:53.200Z,93219.71
2023-01-17T23:25:22.120Z,93229.25
2023-01-17T23:28:08.894Z,93229.14
2023-01-17T23:30:39.426Z,93225.51
2023-01-17T23:33:10.302Z,93230.52
2023-01-17T23:35:42.095Z,93231.94
2023-01-17T23:38:30.903Z,93239.54
2023-01-17T23:41:25.886Z,93244.58
2023-01-17T23:43:56.190Z,93246.54
2023-01-17T23:46:25.926Z,93252.95
2023-01-17T23:48:55.152Z,93248.70
2023-01-17T23:51:23.338Z,93247.79
2023-01-17T23:53:57.484Z,93252.27
2023-01-17T23:56:25.874Z,93246.74
2023-01-17T23:58:54.256Z,93247.45
